Time;durP1;ratioP1;P1;durP2;ratioP2;P2;SDS_P1;SDS_P2;PMS_P1;PMS_P2;Temp;Humidity;BMP_temperature;BMP_pressure;BME280_temperature;BME280_humidity;BME280_pressure;Samples;Min_cycle;Max_cycle;Signal;HPM_P1;HPM_P2
2021/08/05 03:30:21;;;;;;;4.57;2.07;;;15.40;99.70;;;;;;5052972;28;20227;-66
2021/08/05 03:32:48;;;;;;;5.40;2.33;;;15.40;99.70;;;;;;5052727;28;20209;-66
2021/08/05 03:35:14;;;;;;;4.17;2.27;;;15.50;99.70;;;;;;5051850;28;20436;-66
2021/08/05 03:37:41;;;;;;;3.20;1.83;;;15.50;99.70;;;;;;5052590;28;20474;-65
2021/08/05 03:40:09;;;;;;;4.33;2.00;;;15.50;99.70;;;;;;5052533;28;20448;-65
2021/08/05 03:42:35;;;;;;;4.10;2.17;;;15.50;99.70;;;;;;5052474;28;20647;-66
2021/08/05 03:45:02;;;;;;;4.10;2.43;;;15.60;99.70;;;;;;5051509;28;20475;-65
2021/08/05 03:47:30;;;;;;;3.87;2.23;;;15.50;99.70;;;;;;5052476;28;20471;-65
2021/08/05 03:49:57;;;;;;;4.13;1.90;;;15.50;99.70;;;;;;5052388;28;20466;-65
2021/08/05 03:52:23;;;;;;;4.57;2.53;;;15.50;99.70;;;;;;5052210;28;20451;-65
2021/08/05 03:54:50;;;;;;;4.50;2.10;;;15.50;99.70;;;;;;5051615;28;20451;-65
2021/08/05 03:57:17;;;;;;;5.30;2.50;;;15.50;99.70;;;;;;5052410;28;20467;-65
2021/08/05 03:59:44;;;;;;;5.00;2.23;;;15.50;99.70;;;;;;5052306;28;20796;-65
2021/08/05 04:02:10;;;;;;;4.40;2.20;;;15.50;99.70;;;;;;5052591;28;20451;-65
2021/08/05 04:04:38;;;;;;;3.60;2.10;;;15.40;99.70;;;;;;5051541;28;20471;-66
2021/08/05 04:07:06;;;;;;;5.00;2.37;;;15.40;99.70;;;;;;5052220;28;20463;-65
2021/08/05 04:09:32;;;;;;;4.30;2.20;;;15.40;99.70;;;;;;5052242;28;20457;-66
2021/08/05 04:11:59;;;;;;;3.50;1.93;;;15.40;99.70;;;;;;5052279;28;21052;-65
2021/08/05 04:14:26;;;;;;;4.93;2.23;;;15.40;99.70;;;;;;5051482;28;20444;-66
2021/08/05 04:16:52;;;;;;;3.67;2.07;;;15.40;99.70;;;;;;5050248;28;20852;-66
2021/08/05 04:19:19;;;;;;;5.13;2.07;;;15.30;99.70;;;;;;5052143;28;20946;-65
2021/08/05 04:21:50;;;;;;;4.97;2.20;;;15.40;99.70;;;;;;5052478;28;20779;-65
2021/08/05 04:24:16;;;;;;;5.70;2.20;;;15.40;99.70;;;;;;5051372;28;20534;-66
2021/08/05 04:26:43;;;;;;;3.47;1.97;;;15.50;99.70;;;;;;5051122;28;20867;-65
2021/08/05 04:29:10;;;;;;;5.97;2.50;;;15.60;99.70;;;;;;5051943;28;20447;-66
2021/08/05 04:31:36;;;;;;;5.70;2.77;;;15.60;99.70;;;;;;5051939;28;20448;-65
2021/08/05 04:34:03;;;;;;;4.00;2.27;;;15.60;99.70;;;;;;5051012;28;20450;-64
2021/08/05 04:36:30;;;;;;;4.87;2.20;;;15.60;99.70;;;;;;5051490;28;20831;-66
2021/08/05 04:38:58;;;;;;;4.20;2.17;;;15.60;99.70;;;;;;5051610;28;20451;-65
2021/08/05 04:41:24;;;;;;;6.13;2.30;;;15.70;99.70;;;;;;5051824;28;20455;-65
2021/08/05 04:43:52;;;;;;;4.80;2.33;;;15.70;99.70;;;;;;5051283;28;20475;-65
2021/08/05 04:46:19;;;;;;;3.63;2.30;;;15.80;99.70;;;;;;5050889;28;20587;-65
2021/08/05 04:48:45;;;;;;;3.77;2.20;;;15.90;99.70;;;;;;5051333;28;20497;-66
2021/08/05 04:51:12;;;;;;;4.90;2.43;;;15.90;99.70;;;;;;5051247;28;20447;-65
2021/08/05 04:53:39;;;;;;;5.07;2.17;;;15.90;99.70;;;;;;5051143;28;20847;-65
2021/08/05 04:56:07;;;;;;;3.83;1.97;;;15.90;99.70;;;;;;5050559;28;20509;-65
2021/08/05 04:58:34;;;;;;;3.90;2.30;;;15.90;99.70;;;;;;5051139;28;20934;-65
2021/08/05 05:01:00;;;;;;;3.80;1.97;;;16.00;99.70;;;;;;5050892;28;20930;-65
2021/08/05 05:03:27;;;;;;;3.80;2.53;;;16.10;99.70;;;;;;5051171;28;20451;-66
2021/08/05 05:05:54;;;;;;;7.30;2.43;;;16.10;99.70;;;;;;5050202;28;20871;-66
2021/08/05 05:08:22;;;;;;;4.73;2.43;;;16.10;99.70;;;;;;5050836;28;20468;-65
2021/08/05 05:10:51;;;;;;;6.10;2.20;;;16.20;99.70;;;;;;5050959;28;20508;-65
2021/08/05 05:13:20;;;;;;;4.80;2.13;;;16.20;99.70;;;;;;5050914;28;20455;-65
2021/08/05 05:15:46;;;;;;;3.60;2.00;;;16.30;99.70;;;;;;5048539;28;20450;-65
2021/08/05 05:18:15;;;;;;;3.40;2.10;;;16.30;99.70;;;;;;5050690;28;20464;-66
2021/08/05 05:20:42;;;;;;;3.40;1.93;;;16.30;99.70;;;;;;5050533;28;20448;-64
2021/08/05 05:23:09;;;;;;;3.83;1.97;;;16.30;99.70;;;;;;5050613;28;20534;-65
2021/08/05 05:25:37;;;;;;;4.20;1.90;;;16.30;99.70;;;;;;5049834;28;20835;-66
2021/08/05 05:28:04;;;;;;;4.40;2.20;;;16.30;99.70;;;;;;5050527;28;20483;-65
2021/08/05 05:30:33;;;;;;;8.20;2.33;;;16.30;99.70;;;;;;5050530;28;20444;-65
2021/08/05 05:33:00;;;;;;;4.23;2.00;;;16.30;99.70;;;;;;5050259;28;20448;-65
2021/08/05 05:35:26;;;;;;;3.57;2.20;;;16.30;99.70;;;;;;5049694;28;20493;-65
2021/08/05 05:37:55;;;;;;;5.27;2.50;;;16.40;99.70;;;;;;5049695;28;20479;-66
2021/08/05 05:40:22;;;;;;;3.63;2.00;;;16.40;99.70;;;;;;5050029;28;20946;-65
2021/08/05 05:42:49;;;;;;;5.23;2.00;;;16.40;99.70;;;;;;5050304;28;20523;-65
2021/08/05 05:45:17;;;;;;;4.23;2.50;;;16.50;99.70;;;;;;5049448;28;20475;-65
2021/08/05 05:47:46;;;;;;;3.93;2.00;;;16.50;99.70;;;;;;5050369;28;20475;-65
2021/08/05 05:50:14;;;;;;;5.60;1.90;;;16.50;99.70;;;;;;5050076;28;20463;-65
2021/08/05 05:52:41;;;;;;;3.00;1.80;;;16.60;99.70;;;;;;5050168;28;20879;-65
2021/08/05 05:55:09;;;;;;;3.60;2.17;;;16.70;99.70;;;;;;5049352;28;20967;-66
2021/08/05 05:57:36;;;;;;;4.43;1.93;;;16.60;99.70;;;;;;5049943;28;20468;-66
2021/08/05 06:00:04;;;;;;;3.73;1.67;;;16.70;99.70;;;;;;5049855;28;20443;-66
2021/08/05 06:02:31;;;;;;;5.97;2.00;;;16.60;99.70;;;;;;5049750;28;20828;-66
2021/08/05 06:04:59;;;;;;;3.93;2.13;;;16.70;99.70;;;;;;5048995;28;20451;-66
2021/08/05 06:07:26;;;;;;;4.93;2.43;;;16.80;99.70;;;;;;5049624;28;20525;-66
2021/08/05 06:09:52;;;;;;;2.73;1.70;;;16.90;99.70;;;;;;5049874;28;20443;-66
2021/08/05 06:12:19;;;;;;;3.00;1.83;;;16.90;99.70;;;;;;5049448;28;20462;-65
2021/08/05 06:14:46;;;;;;;3.87;2.17;;;16.90;99.70;;;;;;5047880;28;20450;-65
2021/08/05 06:17:13;;;;;;;3.17;2.07;;;17.00;99.70;;;;;;5049316;28;20471;-66
2021/08/05 06:19:40;;;;;;;3.77;1.90;;;16.90;99.70;;;;;;5049370;28;20501;-66
2021/08/05 06:22:10;;;;;;;3.57;1.83;;;16.90;99.70;;;;;;5049727;28;20454;-66
2021/08/05 06:24:37;;;;;;;3.10;1.80;;;17.00;99.70;;;;;;5048810;28;20515;-66
2021/08/05 06:27:04;;;;;;;3.43;1.80;;;16.90;99.70;;;;;;5107096;22;21738;-65
2021/08/05 06:29:32;;;;;;;3.33;1.90;;;17.00;99.70;;;;;;5049479;28;20444;-65
2021/08/05 06:31:59;;;;;;;3.50;2.00;;;17.30;99.70;;;;;;5049243;28;20513;-66
2021/08/05 06:34:26;;;;;;;4.93;2.10;;;18.00;99.70;;;;;;5048381;28;20452;-66
2021/08/05 06:36:52;;;;;;;5.63;1.93;;;18.80;99.70;;;;;;5049052;28;20478;-65
2021/08/05 06:39:20;;;;;;;3.80;2.00;;;19.40;99.70;;;;;;5049123;28;20452;-65
2021/08/05 06:41:47;;;;;;;3.83;2.17;;;19.60;99.70;;;;;;5049231;28;20505;-64
2021/08/05 06:44:14;;;;;;;3.57;2.10;;;19.60;99.70;;;;;;5048541;28;20496;-65
2021/08/05 06:46:41;;;;;;;3.17;2.30;;;20.10;99.70;;;;;;5048780;28;20486;-65
2021/08/05 06:49:08;;;;;;;2.83;1.83;;;20.50;99.70;;;;;;5044740;28;20439;-66
2021/08/05 06:51:34;;;;;;;3.63;1.90;;;20.60;99.70;;;;;;5046703;28;20439;-65
2021/08/05 06:54:01;;;;;;;3.37;2.03;;;21.00;99.70;;;;;;5045922;28;20189;-65
2021/08/05 06:56:29;;;;;;;3.50;2.30;;;21.10;99.70;;;;;;5043393;28;20197;-66
2021/08/05 06:58:55;;;;;;;2.57;1.87;;;21.40;99.70;;;;;;5048663;28;20319;-67
2021/08/05 07:01:22;;;;;;;3.78;2.20;;;21.90;99.70;;;;;;5049686;28;20204;-66
2021/08/05 07:03:49;;;;;;;2.97;2.10;;;22.90;99.70;;;;;;5039704;28;20212;-65
2021/08/05 07:06:16;;;;;;;3.15;1.88;;;23.10;99.70;;;;;;5046638;28;20243;-66
2021/08/05 07:08:43;;;;;;;3.15;2.00;;;23.00;99.70;;;;;;5039918;28;20300;-66
2021/08/05 07:11:10;;;;;;;2.72;1.83;;;22.30;99.70;;;;;;5039070;28;20204;-65
2021/08/05 07:13:38;;;;;;;2.55;2.00;;;22.20;99.70;;;;;;5046418;28;20201;-65
2021/08/05 07:16:05;;;;;;;3.63;2.17;;;21.50;99.70;;;;;;5048210;28;20203;-65
2021/08/05 07:18:31;;;;;;;3.40;1.90;;;20.80;99.70;;;;;;5049195;28;20223;-65
2021/08/05 07:20:58;;;;;;;3.27;2.00;;;20.70;99.70;;;;;;5049553;28;20584;-65
2021/08/05 07:23:25;;;;;;;3.20;1.90;;;21.20;99.70;;;;;;5049531;28;20874;-65
2021/08/05 07:25:51;;;;;;;3.80;2.10;;;21.40;99.70;;;;;;5048982;28;20479;-66
2021/08/05 07:28:18;;;;;;;2.90;1.90;;;21.10;99.70;;;;;;5048970;28;20994;-65
2021/08/05 07:30:47;;;;;;;3.80;2.20;;;21.00;99.70;;;;;;5049267;28;20439;-65
2021/08/05 07:33:13;;;;;;;3.80;2.30;;;21.00;99.70;;;;;;5049266;28;20535;-64
2021/08/05 07:35:40;;;;;;;3.77;2.40;;;20.80;99.70;;;;;;5048735;28;20439;-66
2021/08/05 07:38:08;;;;;;;4.17;1.97;;;20.60;99.70;;;;;;5048926;28;20464;-65
2021/08/05 07:40:34;;;;;;;3.57;2.20;;;20.50;99.70;;;;;;5049358;28;20905;-65
2021/08/05 07:43:01;;;;;;;5.87;2.40;;;20.30;99.70;;;;;;5049236;28;20455;-64
2021/08/05 07:45:28;;;;;;;4.00;2.20;;;20.30;99.70;;;;;;5049012;28;20455;-66
2021/08/05 07:47:56;;;;;;;3.30;1.80;;;20.30;99.70;;;;;;5049017;28;20914;-66
2021/08/05 07:50:23;;;;;;;3.90;2.00;;;20.40;99.70;;;;;;5049291;28;20458;-67
2021/08/05 07:52:49;;;;;;;3.33;1.80;;;20.40;99.70;;;;;;5045405;28;20451;-66
2021/08/05 07:55:16;;;;;;;3.87;1.90;;;20.20;99.70;;;;;;5036765;28;20467;-65
2021/08/05 07:57:43;;;;;;;4.60;2.30;;;20.40;99.70;;;;;;5048855;28;21037;-66
2021/08/05 08:00:10;;;;;;;4.20;2.00;;;20.30;99.70;;;;;;5038029;28;20467;-66
2021/08/05 08:02:37;;;;;;;3.00;1.77;;;20.00;99.70;;;;;;5035079;28;20449;-66
2021/08/05 08:05:06;;;;;;;4.43;2.30;;;20.20;99.70;;;;;;5051757;28;20439;-65
2021/08/05 08:07:36;;;;;;;2.90;1.80;;;20.20;99.70;;;;;;5046061;28;20492;-65
2021/08/05 08:10:04;;;;;;;4.37;2.10;;;20.40;99.70;;;;;;5032886;28;20452;-65
2021/08/05 08:12:31;;;;;;;3.00;1.93;;;20.50;99.70;;;;;;5032717;28;20440;-65
2021/08/05 08:14:57;;;;;;;3.80;2.27;;;20.40;99.70;;;;;;5031662;28;20435;-65
2021/08/05 08:17:24;;;;;;;4.20;2.00;;;20.30;99.70;;;;;;5032434;28;20840;-66
2021/08/05 08:19:51;;;;;;;2.50;1.60;;;20.30;99.70;;;;;;5039638;28;20454;-65
2021/08/05 08:22:19;;;;;;;4.27;2.00;;;20.20;99.70;;;;;;5052491;28;20448;-65
2021/08/05 08:24:45;;;;;;;3.47;1.93;;;20.20;99.70;;;;;;5051081;28;20448;-67
2021/08/05 08:27:12;;;;;;;4.50;2.17;;;20.00;99.70;;;;;;5039515;28;20490;-65
2021/08/05 08:29:39;;;;;;;3.90;2.20;;;20.10;99.70;;;;;;5040239;28;20458;-64
2021/08/05 08:32:06;;;;;;;3.27;1.93;;;20.00;99.70;;;;;;5038895;28;20450;-65
2021/08/05 08:34:32;;;;;;;2.80;1.90;;;19.70;99.70;;;;;;5043328;28;20447;-65
2021/08/05 08:36:59;;;;;;;3.40;1.87;;;19.70;99.70;;;;;;5052270;28;20462;-66
2021/08/05 08:39:27;;;;;;;3.10;1.80;;;19.70;99.70;;;;;;5046023;28;20452;-65
2021/08/05 08:41:55;;;;;;;2.70;1.80;;;19.50;99.70;;;;;;5046784;28;20981;-65
2021/08/05 08:44:21;;;;;;;3.63;2.10;;;19.60;99.70;;;;;;5034469;28;20444;-66
2021/08/05 08:46:48;;;;;;;7.20;2.60;;;19.70;99.70;;;;;;5052036;28;20482;-66
2021/08/05 08:49:16;;;;;;;2.70;1.80;;;19.80;99.70;;;;;;5051715;28;20672;-65
2021/08/05 08:51:46;;;;;;;2.47;1.60;;;20.00;99.70;;;;;;5052115;28;20456;-65
2021/08/05 08:54:14;;;;;;;4.07;1.90;;;20.20;99.70;;;;;;5051530;28;20534;-65
2021/08/05 08:56:43;;;;;;;3.53;1.90;;;20.20;99.70;;;;;;5047140;28;20463;-66
2021/08/05 08:59:11;;;;;;;3.13;1.80;;;20.20;99.70;;;;;;5033798;28;20453;-66
2021/08/05 09:01:40;;;;;;;3.10;1.90;;;20.00;99.70;;;;;;5036803;28;20444;-66
2021/08/05 09:04:07;;;;;;;2.27;1.67;;;20.00;99.70;;;;;;5051111;28;20479;-65
2021/08/05 09:06:34;;;;;;;2.70;1.60;;;19.90;99.70;;;;;;5051508;28;20570;-65
2021/08/05 09:09:01;;;;;;;3.90;1.87;;;19.90;99.70;;;;;;5051557;28;20460;-67
2021/08/05 09:11:28;;;;;;;2.93;1.67;;;20.00;99.70;;;;;;5042064;28;20452;-65
2021/08/05 09:13:56;;;;;;;2.20;1.60;;;20.20;99.70;;;;;;5041303;28;20688;-67
2021/08/05 09:16:25;;;;;;;3.00;1.80;;;20.20;99.70;;;;;;5050767;28;20448;-66
2021/08/05 09:18:52;;;;;;;2.83;1.70;;;20.20;99.70;;;;;;5034520;28;20465;-65
2021/08/05 09:21:22;;;;;;;3.03;1.90;;;20.10;99.70;;;;;;5032147;28;20453;-65
2021/08/05 09:23:57;;;;;;;3.00;1.83;;;20.30;99.70;;;;;;5031565;28;20429;-66
2021/08/05 09:26:30;;;;;;;2.67;1.67;;;20.20;99.70;;;;;;5031416;28;20475;-64
2021/08/05 09:29:11;;;;;;;2.90;1.80;;;20.30;99.70;;;;;;5030904;28;20481;-65
2021/08/05 09:31:41;;;;;;;3.00;1.80;;;20.60;99.70;;;;;;5029755;28;20440;-65
2021/08/05 09:34:09;;;;;;;2.77;1.70;;;20.90;99.70;;;;;;5029921;28;20762;-62
2021/08/05 09:36:37;;;;;;;3.93;2.10;;;20.90;99.70;;;;;;5030819;28;20453;-65
2021/08/05 09:39:16;;;;;;;3.20;1.60;;;20.70;99.70;;;;;;5030717;28;20979;-66
2021/08/05 09:41:54;;;;;;;2.40;1.67;;;21.00;99.70;;;;;;5031743;28;20732;-65
2021/08/05 09:44:22;;;;;;;3.03;1.90;;;21.30;99.70;;;;;;5030855;28;20467;-65
2021/08/05 09:47:01;;;;;;;3.17;1.60;;;21.40;99.70;;;;;;5031439;28;20503;-66
2021/08/05 09:49:29;;;;;;;3.60;1.87;;;21.10;99.70;;;;;;5031187;28;20451;-65
2021/08/05 09:51:56;;;;;;;5.53;2.00;;;21.50;99.70;;;;;;5031225;28;20452;-67
2021/08/05 09:54:23;;;;;;;2.63;1.60;;;22.00;99.70;;;;;;5030766;28;20444;-65
2021/08/05 09:56:55;;;;;;;3.10;1.60;;;21.90;99.70;;;;;;5031340;28;20440;-67
2021/08/05 09:59:23;;;;;;;2.70;1.70;;;22.70;99.70;;;;;;5030805;28;20456;-65
2021/08/05 10:01:59;;;;;;;1.97;1.43;;;23.20;99.70;;;;;;5031234;28;20447;-67
2021/08/05 10:04:28;;;;;;;2.67;1.77;;;24.00;99.70;;;;;;5030032;28;20215;-67
2021/08/05 10:07:05;;;;;;;2.33;1.60;;;24.50;98.10;;;;;;5042755;28;20224;-66
2021/08/05 10:09:33;;;;;;;2.42;1.65;;;24.70;99.30;;;;;;5050455;28;20223;-66
2021/08/05 10:12:17;;;;;;;2.13;1.55;;;23.90;99.70;;;;;;5051027;28;20382;-65
2021/08/05 10:14:47;;;;;;;2.30;1.50;;;23.50;99.70;;;;;;5049572;28;20208;-67
2021/08/05 10:17:15;;;;;;;2.50;1.67;;;22.90;99.70;;;;;;5050895;28;20235;-65
2021/08/05 10:19:43;;;;;;;3.00;1.70;;;22.70;99.70;;;;;;5050350;28;20200;-65
2021/08/05 10:22:12;;;;;;;2.63;1.80;;;22.00;99.70;;;;;;5050515;28;20559;-65
2021/08/05 10:24:41;;;;;;;3.07;1.63;;;21.90;99.70;;;;;;5049641;28;20447;-64
2021/08/05 10:27:09;;;;;;;2.50;1.70;;;22.10;99.70;;;;;;5050224;28;20491;-65
2021/08/05 10:29:37;;;;;;;2.93;1.60;;;22.40;99.70;;;;;;5049980;28;20450;-65
2021/08/05 10:32:07;;;;;;;2.40;1.60;;;22.30;99.70;;;;;;5050237;28;20443;-65
2021/08/05 10:34:35;;;;;;;2.90;1.60;;;22.20;99.70;;;;;;5049812;28;20451;-66
2021/08/05 10:37:03;;;;;;;2.70;1.53;;;22.00;99.70;;;;;;5050201;28;20454;-65
2021/08/05 10:39:31;;;;;;;2.63;1.60;;;21.90;99.70;;;;;;5049903;28;20777;-65
2021/08/05 10:41:59;;;;;;;2.43;1.57;;;21.70;99.70;;;;;;5050257;28;20466;-65
2021/08/05 10:44:27;;;;;;;2.53;1.57;;;21.80;99.70;;;;;;5049574;28;20468;-65
2021/08/05 10:46:55;;;;;;;2.23;1.50;;;21.80;99.70;;;;;;5050040;28;20471;-65
2021/08/05 10:49:24;;;;;;;2.33;1.60;;;22.00;99.70;;;;;;5050097;28;20502;-65
2021/08/05 10:51:51;;;;;;;2.70;1.40;;;22.30;99.70;;;;;;5049944;28;20440;-66
2021/08/05 10:54:50;;;;;;;2.93;1.50;;;22.20;99.70;;;;;;5049405;28;20470;-65
2021/08/05 10:57:18;;;;;;;2.50;1.60;;;22.10;99.70;;;;;;5050008;28;20459;-65
2021/08/05 11:00:02;;;;;;;2.30;1.50;;;22.00;99.70;;;;;;5049741;28;20448;-66
2021/08/05 11:02:50;;;;;;;2.40;1.50;;;22.00;99.70;;;;;;5049954;28;20454;-65
2021/08/05 11:05:46;;;;;;;2.40;1.50;;;22.10;99.70;;;;;;5043797;28;20949;-66
2021/08/05 11:08:27;;;;;;;2.00;1.40;;;22.50;99.70;;;;;;5029785;28;20506;-66
2021/08/05 11:11:34;;;;;;;2.70;1.50;;;22.60;99.70;;;;;;5030229;28;20443;-65
2021/08/05 11:14:38;;;;;;;3.40;1.67;;;22.50;99.70;;;;;;5029496;28;20464;-65
2021/08/05 11:17:06;;;;;;;3.40;1.53;;;22.20;99.70;;;;;;5029339;28;20482;-65
2021/08/05 11:19:35;;;;;;;2.53;1.60;;;22.00;99.70;;;;;;5029537;28;20490;-65
2021/08/05 11:22:51;;;;;;;2.20;1.40;;;22.20;99.70;;;;;;5029831;28;20449;-66
2021/08/05 11:25:20;;;;;;;2.10;1.30;;;22.20;99.70;;;;;;5029283;28;20453;-66
2021/08/05 11:28:22;;;;;;;2.37;1.50;;;22.30;99.70;;;;;;5029463;28;20488;-65
2021/08/05 11:30:51;;;;;;;2.00;1.40;;;22.40;99.70;;;;;;5029724;28;20494;-65
2021/08/05 11:33:50;;;;;;;2.83;1.20;;;22.40;99.70;;;;;;5029735;28;20480;-65
2021/08/05 11:36:26;;;;;;;2.20;1.40;;;22.60;99.70;;;;;;5029626;28;20451;-66
2021/08/05 11:39:02;;;;;;;1.80;1.37;;;22.60;99.70;;;;;;5033458;28;20467;-66
2021/08/05 11:41:54;;;;;;;2.30;1.30;;;22.60;99.70;;;;;;5033500;28;20440;-66
2021/08/05 11:44:45;;;;;;;2.27;1.40;;;22.60;99.70;;;;;;5033136;28;20883;-65
2021/08/05 11:47:28;;;;;;;2.07;1.30;;;22.50;99.70;;;;;;5031257;28;20546;-65
2021/08/05 11:50:00;;;;;;;1.97;1.30;;;22.40;99.70;;;;;;5033208;28;20459;-65
2021/08/05 11:52:36;;;;;;;2.07;1.23;;;22.40;99.70;;;;;;5033336;28;20841;-65
2021/08/05 11:55:06;;;;;;;2.00;1.30;;;22.30;99.70;;;;;;5032803;28;20502;-66
2021/08/05 11:57:39;;;;;;;2.50;1.20;;;22.40;99.70;;;;;;5032936;28;20548;-64
2021/08/05 12:00:11;;;;;;;2.20;1.27;;;22.40;99.70;;;;;;5033541;28;20788;-66
2021/08/05 12:02:38;;;;;;;1.93;1.30;;;22.40;99.70;;;;;;5032721;28;20453;-65
2021/08/05 12:05:05;;;;;;;1.73;1.30;;;22.40;99.70;;;;;;5032612;28;20448;-65
2021/08/05 12:07:34;;;;;;;3.10;1.50;;;22.30;99.70;;;;;;5049541;28;20483;-66
2021/08/05 12:10:12;;;;;;;2.30;1.40;;;22.20;99.70;;;;;;5052567;28;20439;-66
2021/08/05 12:12:44;;;;;;;2.93;1.40;;;22.20;99.70;;;;;;5048079;28;20454;-65
2021/08/05 12:15:13;;;;;;;3.23;1.90;;;22.20;99.70;;;;;;5038421;28;20823;-65
2021/08/05 12:17:51;;;;;;;2.10;1.30;;;22.20;99.70;;;;;;5032901;28;20464;-66
2021/08/05 12:20:21;;;;;;;2.77;1.40;;;22.20;99.70;;;;;;5052537;28;20966;-65
2021/08/05 12:22:50;;;;;;;2.50;1.40;;;22.30;99.70;;;;;;5052454;28;20451;-65
2021/08/05 12:25:26;;;;;;;2.17;1.20;;;22.10;99.70;;;;;;5052199;28;20439;-66
2021/08/05 12:27:57;;;;;;;2.60;1.37;;;22.30;99.70;;;;;;5052117;28;21012;-66
2021/08/05 12:30:39;;;;;;;3.10;1.50;;;22.30;99.70;;;;;;5074434;22;20495;-67
2021/08/05 12:33:10;;;;;;;2.13;1.40;;;22.20;99.70;;;;;;5054176;28;20443;-67
2021/08/05 12:35:37;;;;;;;2.60;1.43;;;22.30;99.70;;;;;;5071622;28;20822;-67
2021/08/05 12:38:07;;;;;;;2.60;1.57;;;22.40;99.70;;;;;;5053615;28;20934;-67
2021/08/05 12:40:37;;;;;;;1.90;1.40;;;22.20;99.70;;;;;;5051916;28;20478;-67
2021/08/05 12:43:07;;;;;;;2.10;1.40;;;22.00;99.70;;;;;;5052519;28;20467;-67
2021/08/05 12:45:36;;;;;;;3.83;1.60;;;22.20;99.70;;;;;;5063347;28;20457;-67
2021/08/05 12:48:04;;;;;;;2.23;1.33;;;22.20;99.70;;;;;;5071049;28;21004;-67
2021/08/05 12:50:31;;;;;;;3.70;1.90;;;22.20;99.70;;;;;;5052299;28;20460;-67
2021/08/05 12:52:58;;;;;;;2.97;1.33;;;22.20;99.70;;;;;;5051876;28;20447;-67
2021/08/05 12:55:25;;;;;;;2.47;1.60;;;22.10;99.70;;;;;;5051641;28;20957;-67
2021/08/05 12:57:53;;;;;;;1.90;1.30;;;21.90;99.70;;;;;;5051765;28;20606;-67
2021/08/05 13:00:31;;;;;;;2.67;1.40;;;21.90;99.70;;;;;;5052002;28;20521;-67
2021/08/05 13:02:59;;;;;;;2.67;1.50;;;21.90;99.70;;;;;;5051752;28;20443;-67
2021/08/05 13:05:27;;;;;;;2.53;1.30;;;21.90;99.70;;;;;;5051545;28;20448;-67
2021/08/05 13:07:54;;;;;;;2.30;1.50;;;21.80;99.70;;;;;;5051514;28;20480;-67
2021/08/05 13:10:26;;;;;;;6.10;1.60;;;21.80;99.70;;;;;;5051836;28;20468;-67
2021/08/05 13:12:55;;;;;;;3.40;1.47;;;21.60;99.70;;;;;;5051493;28;20918;-67
2021/08/05 13:15:30;;;;;;;2.87;1.90;;;21.50;99.70;;;;;;5048691;28;20435;-67
2021/08/05 13:18:00;;;;;;;2.37;1.57;;;21.40;99.70;;;;;;5055170;28;20441;-67
2021/08/05 13:20:27;;;;;;;3.13;1.57;;;21.30;99.70;;;;;;5071523;28;20475;-67
2021/08/05 13:22:54;;;;;;;1.90;1.30;;;21.10;99.70;;;;;;5057466;28;20450;-67
2021/08/05 13:25:22;;;;;;;3.43;1.70;;;21.00;99.70;;;;;;5051134;28;20444;-67
2021/08/05 13:28:08;;;;;;;2.20;1.30;;;20.90;99.70;;;;;;5050994;28;20479;-67
2021/08/05 13:30:36;;;;;;;2.47;1.43;;;20.70;99.70;;;;;;5050450;28;20487;-67
2021/08/05 13:33:16;;;;;;;2.53;1.40;;;20.60;99.70;;;;;;5051148;28;20946;-67
2021/08/05 13:35:46;;;;;;;2.33;1.67;;;20.40;99.70;;;;;;5069657;28;20438;-67
2021/08/05 13:38:13;;;;;;;2.23;1.40;;;20.20;99.70;;;;;;5070701;28;20434;-67
2021/08/05 13:40:40;;;;;;;1.93;1.30;;;20.10;99.70;;;;;;5070976;28;20864;-67
2021/08/05 13:43:09;;;;;;;2.60;1.60;;;20.10;99.70;;;;;;5070785;28;20445;-67
2021/08/05 13:45:37;;;;;;;2.10;1.40;;;20.10;99.70;;;;;;5070728;28;20443;-67
2021/08/05 13:48:04;;;;;;;2.10;1.47;;;20.20;99.70;;;;;;5070545;28;20489;-67
2021/08/05 13:50:32;;;;;;;3.00;1.40;;;20.50;99.70;;;;;;5070899;28;20462;-67
2021/08/05 13:53:01;;;;;;;3.30;1.50;;;20.50;99.70;;;;;;5070570;28;20526;-67
2021/08/05 13:55:30;;;;;;;2.57;1.50;;;20.50;99.70;;;;;;5070240;28;20948;-67
2021/08/05 13:57:57;;;;;;;2.37;1.50;;;20.60;99.70;;;;;;5070398;28;20443;-67
2021/08/05 14:00:26;;;;;;;2.53;1.40;;;20.80;99.70;;;;;;5069735;28;20466;-67
2021/08/05 14:02:54;;;;;;;2.30;1.37;;;20.80;99.70;;;;;;5070427;28;20454;-67
2021/08/05 14:05:21;;;;;;;18.70;6.40;;;20.60;99.70;;;;;;5070422;28;20443;-67
2021/08/05 14:07:51;;;;;;;16.67;3.50;;;20.70;99.70;;;;;;5069902;28;21004;-67
2021/08/05 14:10:18;;;;;;;4.30;1.83;;;20.60;99.70;;;;;;5067272;28;20491;-68
2021/08/05 14:12:45;;;;;;;2.13;1.50;;;20.50;99.70;;;;;;5050397;28;20455;-67
2021/08/05 14:15:13;;;;;;;1.47;1.10;;;20.30;99.70;;;;;;5049671;28;20443;-67
2021/08/05 14:17:39;;;;;;;2.33;1.20;;;20.40;99.70;;;;;;5050388;28;20443;-68
2021/08/05 14:20:10;;;;;;;2.13;1.30;;;20.40;99.70;;;;;;5050336;28;20471;-67
2021/08/05 14:22:37;;;;;;;2.30;1.30;;;20.50;99.70;;;;;;5050137;28;20880;-67
2021/08/05 14:25:05;;;;;;;1.70;1.30;;;20.60;99.70;;;;;;5049904;28;20454;-67
2021/08/05 14:27:32;;;;;;;1.80;1.30;;;20.60;99.70;;;;;;5050430;28;20448;-67
2021/08/05 14:29:59;;;;;;;2.00;1.20;;;20.60;99.70;;;;;;5049845;28;20463;-67
2021/08/05 14:32:25;;;;;;;2.27;1.37;;;20.80;99.70;;;;;;5050516;28;20440;-68
2021/08/05 14:34:52;;;;;;;2.40;1.37;;;20.80;99.70;;;;;;5049792;28;20833;-67
2021/08/05 14:37:21;;;;;;;2.03;1.30;;;20.80;99.70;;;;;;5050277;28;20741;-67
2021/08/05 14:39:48;;;;;;;1.73;1.30;;;20.90;99.70;;;;;;5049860;28;20456;-67
2021/08/05 14:42:15;;;;;;;2.10;1.30;;;20.90;99.70;;;;;;5050247;28;20828;-67
2021/08/05 14:44:42;;;;;;;1.97;1.50;;;20.90;99.70;;;;;;5049215;28;20538;-67
2021/08/05 14:47:08;;;;;;;2.67;1.50;;;21.00;99.70;;;;;;5063478;28;20508;-67
2021/08/05 14:49:35;;;;;;;1.53;1.30;;;21.00;99.70;;;;;;5069691;28;20502;-67
2021/08/05 14:52:02;;;;;;;2.10;1.40;;;21.00;99.70;;;;;;5056725;28;20444;-67
2021/08/05 14:54:30;;;;;;;1.53;1.20;;;21.00;99.70;;;;;;5061589;28;20526;-67
2021/08/05 14:56:57;;;;;;;2.43;1.40;;;21.00;99.70;;;;;;5069876;28;20439;-67
2021/08/05 14:59:24;;;;;;;2.13;1.20;;;20.90;99.70;;;;;;5043516;28;20515;-67
2021/08/05 15:01:51;;;;;;;2.33;1.30;;;20.90;99.70;;;;;;5065641;28;20438;-67
2021/08/05 15:04:17;;;;;;;2.00;1.40;;;20.90;99.70;;;;;;5067143;28;20453;-67
2021/08/05 15:06:45;;;;;;;2.20;1.20;;;20.90;99.70;;;;;;5049819;28;20480;-67
2021/08/05 15:09:15;;;;;;;2.33;1.40;;;21.00;99.70;;;;;;5056390;28;20482;-67
2021/08/05 15:11:43;;;;;;;1.70;1.30;;;21.00;99.70;;;;;;5051547;28;20481;-67
2021/08/05 15:14:10;;;;;;;1.80;1.30;;;21.00;99.70;;;;;;5053652;28;21073;-67
2021/08/05 15:16:37;;;;;;;2.27;1.33;;;21.10;99.70;;;;;;5052867;28;20444;-68
2021/08/05 15:19:04;;;;;;;2.23;1.10;;;21.10;99.70;;;;;;5043736;28;21030;-67
2021/08/05 15:21:31;;;;;;;1.70;1.17;;;21.00;99.70;;;;;;5049208;28;20483;-67
2021/08/05 15:23:58;;;;;;;1.93;1.20;;;21.00;99.70;;;;;;5049595;28;20814;-67
2021/08/05 15:26:27;;;;;;;1.97;1.37;;;21.00;99.70;;;;;;5073447;28;20839;-67
2021/08/05 15:28:55;;;;;;;1.83;1.30;;;20.90;99.70;;;;;;5058775;28;20509;-67
2021/08/05 15:31:22;;;;;;;2.03;1.20;;;20.80;99.70;;;;;;5053844;28;20482;-67
2021/08/05 15:33:48;;;;;;;2.17;1.10;;;20.60;99.70;;;;;;5064812;28;20439;-67
2021/08/05 15:36:16;;;;;;;2.13;1.30;;;20.50;99.70;;;;;;5073382;28;20446;-67
2021/08/05 15:38:43;;;;;;;1.90;1.40;;;20.40;99.70;;;;;;5072615;28;20945;-67
2021/08/05 15:41:10;;;;;;;2.00;1.33;;;20.30;99.70;;;;;;5053474;28;20464;-66
2021/08/05 15:43:37;;;;;;;2.30;1.43;;;20.10;99.70;;;;;;5053525;28;20520;-67
2021/08/05 15:46:05;;;;;;;2.60;1.40;;;20.00;99.70;;;;;;5053074;28;20450;-67
2021/08/05 15:48:32;;;;;;;2.03;1.30;;;20.00;99.70;;;;;;5053444;28;20997;-67
2021/08/05 15:50:59;;;;;;;1.63;1.23;;;19.90;99.70;;;;;;5053167;28;20981;-67
2021/08/05 15:53:25;;;;;;;2.10;1.20;;;19.90;99.70;;;;;;5053302;28;20448;-67
2021/08/05 15:55:52;;;;;;;1.50;1.10;;;19.80;99.70;;;;;;5052601;28;20498;-67
2021/08/05 15:58:19;;;;;;;2.43;1.30;;;19.80;99.70;;;;;;5053059;28;20448;-67
2021/08/05 16:00:46;;;;;;;2.17;1.40;;;19.70;99.70;;;;;;5052851;28;20470;-67
2021/08/05 16:03:14;;;;;;;3.40;1.30;;;19.60;99.70;;;;;;5053116;28;20439;-67
2021/08/05 16:05:41;;;;;;;1.90;1.20;;;19.70;99.70;;;;;;5052355;28;20454;-67
2021/08/05 16:08:08;;;;;;;1.90;1.13;;;19.60;99.70;;;;;;5052750;28;20446;-67
2021/08/05 16:10:37;;;;;;;2.20;1.30;;;19.60;99.70;;;;;;5052574;28;20475;-67
2021/08/05 16:13:03;;;;;;;1.83;1.30;;;19.60;99.70;;;;;;5052754;28;20454;-67
2021/08/05 16:15:30;;;;;;;2.13;1.17;;;19.60;99.70;;;;;;5051661;28;20447;-67
2021/08/05 16:17:57;;;;;;;2.20;1.47;;;19.30;99.70;;;;;;5069910;28;20443;-67
2021/08/05 16:20:25;;;;;;;3.83;1.30;;;19.40;99.70;;;;;;5072619;28;20470;-67
2021/08/05 16:22:52;;;;;;;1.70;1.30;;;19.30;99.70;;;;;;5071632;28;20438;-67
2021/08/05 16:25:19;;;;;;;2.13;1.30;;;19.30;99.70;;;;;;5059606;28;20450;-67
2021/08/05 16:27:45;;;;;;;1.57;1.10;;;19.30;99.70;;;;;;5052615;28;20446;-67